Terminal Aerodrome Forecast
Issued by NWS Twin Cities, MN

Home | Current Version | Previous Version | Text Only | Print | Product List | Glossary Off
Versions: 1 2 3 4 5 6 7 8 9 10 11 12 13 14 15 16 17 18 19 20 21 22 23 24 25 26 27 28 29 30 31 32 33

000
FTUS43 KMPX 011400 AAB
TAFMSP
TAF AMD
KMSP 011447Z 0115/0218 30007KT P6SM SCT020 BKN025 BKN110
     FM011530 30010G16KT P6SM SCT025 BKN110
     FM011800 30012G18KT P6SM SCT050
     FM020100 29007KT P6SM SCT050 BKN090
     FM020900 26005KT P6SM SCT100=

USA.gov is the U.S. government's official web portal to all federal, state and local government web resources and services.